sensor_id;sensor_type;location;lat;lon;timestamp;pressure;altitude;pressure_sealevel;temperature;humidity
46015;BME280;36844;51.898;-0.874;2022-10-16T00:01:14;99313.38;;;18.59;
46015;BME280;36844;51.898;-0.874;2022-10-16T00:04:01;99327.63;;;18.59;
46015;BME280;36844;51.898;-0.874;2022-10-16T00:06:47;99305.91;;;18.50;
46015;BME280;36844;51.898;-0.874;2022-10-16T00:09:33;99322.00;;;18.54;
46015;BME280;36844;51.898;-0.874;2022-10-16T00:12:19;99311.84;;;18.45;
46015;BME280;36844;51.898;-0.874;2022-10-16T00:15:05;99308.81;;;18.43;
46015;BME280;36844;51.898;-0.874;2022-10-16T00:17:51;99311.41;;;18.47;
46015;BME280;36844;51.898;-0.874;2022-10-16T00:20:36;99311.41;;;18.47;
46015;BME280;36844;51.898;-0.874;2022-10-16T00:23:22;99319.84;;;18.49;
46015;BME280;36844;51.898;-0.874;2022-10-16T00:26:12;99324.88;;;18.47;
46015;BME280;36844;51.898;-0.874;2022-10-16T00:28:58;99302.53;;;18.34;
46015;BME280;36844;51.898;-0.874;2022-10-16T00:31:44;99308.56;;;18.38;
46015;BME280;36844;51.898;-0.874;2022-10-16T00:34:29;99313.44;;;18.43;
46015;BME280;36844;51.898;-0.874;2022-10-16T00:37:15;99327.69;;;18.43;
46015;BME280;36844;51.898;-0.874;2022-10-16T00:40:01;99304.25;;;18.28;
46015;BME280;36844;51.898;-0.874;2022-10-16T00:42:46;99304.88;;;18.32;
46015;BME280;36844;51.898;-0.874;2022-10-16T00:45:32;99319.34;;;18.38;
46015;BME280;36844;51.898;-0.874;2022-10-16T00:48:17;99327.84;;;18.36;
46015;BME280;36844;51.898;-0.874;2022-10-16T00:51:03;99327.53;;;18.34;
46015;BME280;36844;51.898;-0.874;2022-10-16T00:53:50;99317.34;;;18.26;
46015;BME280;36844;51.898;-0.874;2022-10-16T00:56:35;99323.75;;;18.32;
46015;BME280;36844;51.898;-0.874;2022-10-16T00:59:37;99323.75;;;18.32;
46015;BME280;36844;51.898;-0.874;2022-10-16T01:02:23;99331.50;;;18.30;
46015;BME280;36844;51.898;-0.874;2022-10-16T01:05:09;99328.50;;;18.28;
46015;BME280;36844;51.898;-0.874;2022-10-16T01:08:39;99330.44;;;18.27;
46015;BME280;36844;51.898;-0.874;2022-10-16T01:11:33;99326.69;;;18.21;
46015;BME280;36844;51.898;-0.874;2022-10-16T01:17:31;99345.06;;;18.26;
46015;BME280;36844;51.898;-0.874;2022-10-16T01:20:26;99339.28;;;18.28;
46015;BME280;36844;51.898;-0.874;2022-10-16T01:23:30;99336.72;;;18.21;
46015;BME280;36844;51.898;-0.874;2022-10-16T01:26:23;99341.59;;;18.26;
46015;BME280;36844;51.898;-0.874;2022-10-16T01:29:21;99343.31;;;18.20;
46015;BME280;36844;51.898;-0.874;2022-10-16T01:32:39;99349.03;;;18.22;
46015;BME280;36844;51.898;-0.874;2022-10-16T01:35:35;99343.72;;;18.18;
46015;BME280;36844;51.898;-0.874;2022-10-16T01:38:26;99348.25;;;18.21;
46015;BME280;36844;51.898;-0.874;2022-10-16T01:41:22;99345.44;;;18.12;
46015;BME280;36844;51.898;-0.874;2022-10-16T01:44:31;99350.28;;;18.17;
46015;BME280;36844;51.898;-0.874;2022-10-16T01:47:16;99364.50;;;18.18;
46015;BME280;36844;51.898;-0.874;2022-10-16T01:50:04;99353.16;;;18.10;
46015;BME280;36844;51.898;-0.874;2022-10-16T01:52:52;99351.91;;;18.15;
46015;BME280;36844;51.898;-0.874;2022-10-16T01:55:42;99355.28;;;18.19;
46015;BME280;36844;51.898;-0.874;2022-10-16T01:58:33;99354.28;;;18.13;
46015;BME280;36844;51.898;-0.874;2022-10-16T02:01:22;99355.28;;;18.19;
46015;BME280;36844;51.898;-0.874;2022-10-16T02:04:15;99357.28;;;18.15;
46015;BME280;36844;51.898;-0.874;2022-10-16T02:07:01;99356.97;;;18.13;
46015;BME280;36844;51.898;-0.874;2022-10-16T02:09:46;99365.38;;;18.15;
46015;BME280;36844;51.898;-0.874;2022-10-16T02:12:33;99361.69;;;18.09;
46015;BME280;36844;51.898;-0.874;2022-10-16T02:15:20;99367.38;;;18.11;
46015;BME280;36844;51.898;-0.874;2022-10-16T02:18:06;99387.78;;;18.12;
46015;BME280;36844;51.898;-0.874;2022-10-16T02:20:59;99380.88;;;18.11;
46015;BME280;36844;51.898;-0.874;2022-10-16T02:26:42;99382.19;;;18.03;
46015;BME280;36844;51.898;-0.874;2022-10-16T02:29:29;99384.84;;;18.06;
46015;BME280;36844;51.898;-0.874;2022-10-16T02:32:17;99398.56;;;18.12;
46015;BME280;36844;51.898;-0.874;2022-10-16T02:35:06;99387.28;;;18.01;
46015;BME280;36844;51.898;-0.874;2022-10-16T02:37:53;99406.66;;;18.12;
46015;BME280;36844;51.898;-0.874;2022-10-16T02:40:39;99412.50;;;18.07;
46015;BME280;36844;51.898;-0.874;2022-10-16T02:43:25;99426.00;;;18.07;
46015;BME280;36844;51.898;-0.874;2022-10-16T02:46:11;99423.28;;;18.07;
46015;BME280;36844;51.898;-0.874;2022-10-16T02:48:57;99423.28;;;18.07;
46015;BME280;36844;51.898;-0.874;2022-10-16T02:51:42;99429.28;;;17.98;
46015;BME280;36844;51.898;-0.874;2022-10-16T02:54:28;99415.13;;;17.94;
46015;BME280;36844;51.898;-0.874;2022-10-16T02:57:13;99421.63;;;17.97;
46015;BME280;36844;51.898;-0.874;2022-10-16T02:59:59;99421.63;;;17.97;
46015;BME280;36844;51.898;-0.874;2022-10-16T03:02:45;99436.09;;;18.03;
46015;BME280;36844;51.898;-0.874;2022-10-16T03:05:32;99441.97;;;17.98;
46015;BME280;36844;51.898;-0.874;2022-10-16T03:08:17;99440.13;;;17.95;
46015;BME280;36844;51.898;-0.874;2022-10-16T03:11:08;99444.00;;;17.94;
46015;BME280;36844;51.898;-0.874;2022-10-16T03:13:54;99457.72;;;17.99;
46015;BME280;36844;51.898;-0.874;2022-10-16T03:16:39;99451.69;;;17.95;
46015;BME280;36844;51.898;-0.874;2022-10-16T03:19:25;99465.97;;;17.92;
46015;BME280;36844;51.898;-0.874;2022-10-16T03:22:11;99460.56;;;17.92;
46015;BME280;36844;51.898;-0.874;2022-10-16T03:24:56;99472.81;;;17.97;
46015;BME280;36844;51.898;-0.874;2022-10-16T03:27:42;99466.03;;;17.89;
46015;BME280;36844;51.898;-0.874;2022-10-16T03:30:27;99482.13;;;17.92;
46015;BME280;36844;51.898;-0.874;2022-10-16T03:33:13;99481.31;;;17.95;
46015;BME280;36844;51.898;-0.874;2022-10-16T03:35:59;99479.84;;;17.91;
46015;BME280;36844;51.898;-0.874;2022-10-16T03:38:45;99492.44;;;17.97;
46015;BME280;36844;51.898;-0.874;2022-10-16T03:41:31;99491.06;;;17.89;
46015;BME280;36844;51.898;-0.874;2022-10-16T03:44:16;99516.72;;;17.94;
46015;BME280;36844;51.898;-0.874;2022-10-16T03:47:02;99498.44;;;17.85;
46015;BME280;36844;51.898;-0.874;2022-10-16T03:49:48;99512.59;;;17.89;
46015;BME280;36844;51.898;-0.874;2022-10-16T03:52:34;99517.22;;;17.89;
46015;BME280;36844;51.898;-0.874;2022-10-16T03:55:19;99505.34;;;17.86;
46015;BME280;36844;51.898;-0.874;2022-10-16T03:58:05;99521.44;;;17.90;
46015;BME280;36844;51.898;-0.874;2022-10-16T04:00:51;99532.88;;;17.94;
46015;BME280;36844;51.898;-0.874;2022-10-16T04:03:37;99529.19;;;17.88;
46015;BME280;36844;51.898;-0.874;2022-10-16T04:06:23;99533.31;;;17.92;
46015;BME280;36844;51.898;-0.874;2022-10-16T04:09:09;99535.31;;;17.88;
46015;BME280;36844;51.898;-0.874;2022-10-16T04:11:54;99547.28;;;17.87;
46015;BME280;36844;51.898;-0.874;2022-10-16T04:14:40;99560.31;;;17.89;
46015;BME280;36844;51.898;-0.874;2022-10-16T04:17:25;99558.47;;;17.86;
46015;BME280;36844;51.898;-0.874;2022-10-16T04:20:11;99558.47;;;17.86;
46015;BME280;36844;51.898;-0.874;2022-10-16T04:22:57;99560.13;;;17.80;
46015;BME280;36844;51.898;-0.874;2022-10-16T04:25:42;99563.16;;;17.82;
46015;BME280;36844;51.898;-0.874;2022-10-16T04:28:28;99556.31;;;17.77;
46015;BME280;36844;51.898;-0.874;2022-10-16T04:31:14;99556.03;;;17.71;
46015;BME280;36844;51.898;-0.874;2022-10-16T04:33:59;99566.81;;;17.71;
46015;BME280;36844;51.898;-0.874;2022-10-16T04:36:48;99596.91;;;17.86;
46015;BME280;36844;51.898;-0.874;2022-10-16T04:39:37;99603.22;;;17.80;
46015;BME280;36844;51.898;-0.874;2022-10-16T04:42:22;99612.34;;;17.86;
46015;BME280;36844;51.898;-0.874;2022-10-16T04:45:08;99617.03;;;17.82;
46015;BME280;36844;51.898;-0.874;2022-10-16T04:47:59;99617.78;;;17.82;
46015;BME280;36844;51.898;-0.874;2022-10-16T04:50:45;99612.19;;;17.73;
46015;BME280;36844;51.898;-0.874;2022-10-16T04:53:31;99611.09;;;17.70;
46015;BME280;36844;51.898;-0.874;2022-10-16T04:56:17;99629.03;;;17.77;
46015;BME280;36844;51.898;-0.874;2022-10-16T04:59:02;99636.69;;;17.78;
46015;BME280;36844;51.898;-0.874;2022-10-16T05:01:48;99627.16;;;17.74;
46015;BME280;36844;51.898;-0.874;2022-10-16T05:04:34;99629.50;;;17.72;
46015;BME280;36844;51.898;-0.874;2022-10-16T05:07:19;99641.44;;;17.71;
46015;BME280;36844;51.898;-0.874;2022-10-16T05:10:05;99635.41;;;17.63;
46015;BME280;36844;51.898;-0.874;2022-10-16T05:12:51;99642.34;;;17.64;
46015;BME280;36844;51.898;-0.874;2022-10-16T05:15:37;99658.78;;;17.70;
46015;BME280;36844;51.898;-0.874;2022-10-16T05:18:22;99658.78;;;17.70;
46015;BME280;36844;51.898;-0.874;2022-10-16T05:21:08;99665.41;;;17.65;
46015;BME280;36844;51.898;-0.874;2022-10-16T05:23:54;99670.34;;;17.67;
46015;BME280;36844;51.898;-0.874;2022-10-16T05:26:40;99672.66;;;17.68;
46015;BME280;36844;51.898;-0.874;2022-10-16T05:29:26;99675.00;;;17.66;
46015;BME280;36844;51.898;-0.874;2022-10-16T05:32:12;99699.19;;;17.70;
46015;BME280;36844;51.898;-0.874;2022-10-16T05:34:57;99681.56;;;17.65;
46015;BME280;36844;51.898;-0.874;2022-10-16T05:37:45;99698.44;;;17.69;
46015;BME280;36844;51.898;-0.874;2022-10-16T05:40:31;99688.13;;;17.64;
46015;BME280;36844;51.898;-0.874;2022-10-16T05:43:17;99696.13;;;17.68;
46015;BME280;36844;51.898;-0.874;2022-10-16T05:46:04;99693.94;;;17.59;
46015;BME280;36844;51.898;-0.874;2022-10-16T05:48:53;99701.97;;;17.63;
46015;BME280;36844;51.898;-0.874;2022-10-16T05:51:39;99717.69;;;17.68;
46015;BME280;36844;51.898;-0.874;2022-10-16T05:54:24;99710.09;;;17.59;
46015;BME280;36844;51.898;-0.874;2022-10-16T05:57:10;99718.50;;;17.65;
46015;BME280;36844;51.898;-0.874;2022-10-16T05:59:56;99716.59;;;17.65;
46015;BME280;36844;51.898;-0.874;2022-10-16T06:02:42;99718.13;;;17.63;
46015;BME280;36844;51.898;-0.874;2022-10-16T06:05:27;99735.38;;;17.69;
46015;BME280;36844;51.898;-0.874;2022-10-16T06:08:13;99738.84;;;17.66;
46015;BME280;36844;51.898;-0.874;2022-10-16T06:11:06;99749.22;;;17.67;
46015;BME280;36844;51.898;-0.874;2022-10-16T06:13:54;99757.69;;;17.69;
46015;BME280;36844;51.898;-0.874;2022-10-16T06:16:40;99727.50;;;17.55;
46015;BME280;36844;51.898;-0.874;2022-10-16T06:19:26;99752.75;;;17.64;
46015;BME280;36844;51.898;-0.874;2022-10-16T06:22:11;99755.72;;;17.70;
46015;BME280;36844;51.898;-0.874;2022-10-16T06:24:57;99761.03;;;17.73;
46015;BME280;36844;51.898;-0.874;2022-10-16T06:27:43;99761.13;;;17.70;
46015;BME280;36844;51.898;-0.874;2022-10-16T06:30:29;99751.84;;;17.71;
46015;BME280;36844;51.898;-0.874;2022-10-16T06:33:14;99775.56;;;17.80;
46015;BME280;36844;51.898;-0.874;2022-10-16T06:38:50;99790.91;;;17.83;
46015;BME280;36844;51.898;-0.874;2022-10-16T06:41:36;99790.91;;;17.83;
46015;BME280;36844;51.898;-0.874;2022-10-16T06:44:21;99781.78;;;17.77;
46015;BME280;36844;51.898;-0.874;2022-10-16T06:47:07;99789.09;;;17.76;
46015;BME280;36844;51.898;-0.874;2022-10-16T06:49:52;99800.16;;;17.82;
46015;BME280;36844;51.898;-0.874;2022-10-16T06:52:38;99786.13;;;17.70;
46015;BME280;36844;51.898;-0.874;2022-10-16T06:55:24;99820.53;;;17.83;
46015;BME280;36844;51.898;-0.874;2022-10-16T06:58:09;99806.41;;;17.75;
46015;BME280;36844;51.898;-0.874;2022-10-16T07:00:55;99815.50;;;17.85;
46015;BME280;36844;51.898;-0.874;2022-10-16T07:03:43;99806.03;;;17.77;
46015;BME280;36844;51.898;-0.874;2022-10-16T07:06:32;99827.81;;;17.86;
46015;BME280;36844;51.898;-0.874;2022-10-16T07:09:18;99818.66;;;17.80;
46015;BME280;36844;51.898;-0.874;2022-10-16T07:12:04;99829.81;;;17.82;
46015;BME280;36844;51.898;-0.874;2022-10-16T07:14:49;99824.78;;;17.84;
46015;BME280;36844;51.898;-0.874;2022-10-16T07:17:37;99827.47;;;17.84;
46015;BME280;36844;51.898;-0.874;2022-10-16T07:20:23;99838.59;;;17.86;
46015;BME280;36844;51.898;-0.874;2022-10-16T07:23:08;99841.63;;;17.88;
46015;BME280;36844;51.898;-0.874;2022-10-16T07:25:54;99821.06;;;17.74;
46015;BME280;36844;51.898;-0.874;2022-10-16T07:28:42;99843.28;;;17.82;
46015;BME280;36844;51.898;-0.874;2022-10-16T07:31:28;99844.03;;;17.82;
46015;BME280;36844;51.898;-0.874;2022-10-16T07:34:15;99853.97;;;17.85;
46015;BME280;36844;51.898;-0.874;2022-10-16T07:37:01;99864.00;;;17.85;
46015;BME280;36844;51.898;-0.874;2022-10-16T07:39:47;99878.16;;;17.89;
46015;BME280;36844;51.898;-0.874;2022-10-16T07:42:33;99870.19;;;17.82;
46015;BME280;36844;51.898;-0.874;2022-10-16T07:45:18;99880.97;;;17.82;
46015;BME280;36844;51.898;-0.874;2022-10-16T07:48:04;99883.63;;;17.85;
46015;BME280;36844;51.898;-0.874;2022-10-16T07:50:49;99885.94;;;17.83;
46015;BME280;36844;51.898;-0.874;2022-10-16T07:53:35;99908.22;;;17.87;
46015;BME280;36844;51.898;-0.874;2022-10-16T07:56:21;99915.88;;;17.89;
46015;BME280;36844;51.898;-0.874;2022-10-16T07:59:07;99890.69;;;17.75;
46015;BME280;36844;51.898;-0.874;2022-10-16T08:01:52;99914.75;;;17.86;
46015;BME280;36844;51.898;-0.874;2022-10-16T08:04:38;99912.47;;;17.85;
46015;BME280;36844;51.898;-0.874;2022-10-16T08:07:24;99937.06;;;17.87;
46015;BME280;36844;51.898;-0.874;2022-10-16T08:10:16;99938.31;;;17.82;
46015;BME280;36844;51.898;-0.874;2022-10-16T08:13:02;99932.56;;;17.80;
46015;BME280;36844;51.898;-0.874;2022-10-16T08:15:48;99940.59;;;17.84;
46015;BME280;36844;51.898;-0.874;2022-10-16T08:18:37;99962.50;;;17.86;
46015;BME280;36844;51.898;-0.874;2022-10-16T08:21:23;99952.53;;;17.83;
46015;BME280;36844;51.898;-0.874;2022-10-16T08:24:08;99964.84;;;17.84;
46015;BME280;36844;51.898;-0.874;2022-10-16T08:26:54;99960.28;;;17.81;
46015;BME280;36844;51.898;-0.874;2022-10-16T08:29:40;99970.63;;;17.82;
46015;BME280;36844;51.898;-0.874;2022-10-16T08:32:26;99969.19;;;17.74;
46015;BME280;36844;51.898;-0.874;2022-10-16T08:35:12;99983.75;;;17.80;
46015;BME280;36844;51.898;-0.874;2022-10-16T08:37:58;99990.28;;;17.79;
46015;BME280;36844;51.898;-0.874;2022-10-16T08:40:44;99991.41;;;17.82;
46015;BME280;36844;51.898;-0.874;2022-10-16T08:44:31;100001.78;;;17.83;
46015;BME280;36844;51.898;-0.874;2022-10-16T08:47:13;99994.16;;;17.74;
46015;BME280;36844;51.898;-0.874;2022-10-16T08:50:08;100012.88;;;17.89;
46015;BME280;36844;51.898;-0.874;2022-10-16T08:52:55;100007.94;;;17.84;
46015;BME280;36844;51.898;-0.874;2022-10-16T08:55:46;100007.94;;;17.84;
46015;BME280;36844;51.898;-0.874;2022-10-16T08:58:34;100014.84;;;17.85;
46015;BME280;36844;51.898;-0.874;2022-10-16T09:01:21;100019.44;;;17.88;
46015;BME280;36844;51.898;-0.874;2022-10-16T09:04:38;100016.38;;;17.86;
46015;BME280;36844;51.898;-0.874;2022-10-16T09:07:42;100020.53;;;17.90;
46015;BME280;36844;51.898;-0.874;2022-10-16T09:13:56;100023.69;;;17.85;
46015;BME280;36844;51.898;-0.874;2022-10-16T09:16:51;100031.47;;;17.80;
46015;BME280;36844;51.898;-0.874;2022-10-16T09:25:50;100044.72;;;17.94;
46015;BME280;36844;51.898;-0.874;2022-10-16T09:28:36;100045.50;;;17.94;
46015;BME280;36844;51.898;-0.874;2022-10-16T09:31:22;100045.91;;;17.93;
46015;BME280;36844;51.898;-0.874;2022-10-16T09:34:20;100030.59;;;17.86;
46015;BME280;36844;51.898;-0.874;2022-10-16T09:37:11;100029.44;;;17.87;
46015;BME280;36844;51.898;-0.874;2022-10-16T09:39:57;100037.09;;;17.89;
46015;BME280;36844;51.898;-0.874;2022-10-16T09:42:43;100048.19;;;17.94;
46015;BME280;36844;51.898;-0.874;2022-10-16T09:45:29;100045.25;;;17.85;
46015;BME280;36844;51.898;-0.874;2022-10-16T09:48:18;100047.84;;;17.92;
46015;BME280;36844;51.898;-0.874;2022-10-16T09:51:06;100050.84;;;17.98;
46015;BME280;36844;51.898;-0.874;2022-10-16T09:54:16;100055.06;;;17.99;
46015;BME280;36844;51.898;-0.874;2022-10-16T09:57:07;100042.03;;;17.94;
46015;BME280;36844;51.898;-0.874;2022-10-16T09:59:57;100027.81;;;17.93;
46015;BME280;36844;51.898;-0.874;2022-10-16T10:02:44;100054.25;;;18.02;
46015;BME280;36844;51.898;-0.874;2022-10-16T10:05:30;100051.97;;;18.00;
46015;BME280;36844;51.898;-0.874;2022-10-16T10:08:15;100061.56;;;18.05;
46015;BME280;36844;51.898;-0.874;2022-10-16T10:11:03;100051.56;;;18.02;
46015;BME280;36844;51.898;-0.874;2022-10-16T10:13:50;100045.09;;;17.96;
46015;BME280;36844;51.898;-0.874;2022-10-16T10:16:35;100056.44;;;18.10;
46015;BME280;36844;51.898;-0.874;2022-10-16T10:19:22;100056.44;;;18.10;
46015;BME280;36844;51.898;-0.874;2022-10-16T10:31:29;100050.72;;;18.08;
46015;BME280;36844;51.898;-0.874;2022-10-16T10:40:34;100048.69;;;18.16;
46015;BME280;36844;51.898;-0.874;2022-10-16T10:43:55;100049.09;;;18.14;
46015;BME280;36844;51.898;-0.874;2022-10-16T10:56:56;100036.47;;;18.08;
46015;BME280;36844;51.898;-0.874;2022-10-16T11:00:24;100041.75;;;18.15;
46015;BME280;36844;51.898;-0.874;2022-10-16T11:06:12;100053.28;;;18.19;
46015;BME280;36844;51.898;-0.874;2022-10-16T11:12:06;100032.91;;;18.14;
46015;BME280;36844;51.898;-0.874;2022-10-16T11:15:16;100026.53;;;18.05;
46015;BME280;36844;51.898;-0.874;2022-10-16T11:18:13;100048.59;;;18.23;
46015;BME280;36844;51.898;-0.874;2022-10-16T11:21:05;100029.13;;;18.12;
46015;BME280;36844;51.898;-0.874;2022-10-16T11:23:53;100051.25;;;18.26;
46015;BME280;36844;51.898;-0.874;2022-10-16T11:26:43;100028.19;;;18.22;
46015;BME280;36844;51.898;-0.874;2022-10-16T11:29:32;100030.50;;;18.23;
46015;BME280;36844;51.898;-0.874;2022-10-16T11:32:28;100024.38;;;18.19;
46015;BME280;36844;51.898;-0.874;2022-10-16T11:35:21;100022.78;;;18.22;
46015;BME280;36844;51.898;-0.874;2022-10-16T11:41:06;100042.72;;;18.31;
46015;BME280;36844;51.898;-0.874;2022-10-16T11:44:03;100048.84;;;18.32;
46015;BME280;36844;51.898;-0.874;2022-10-16T11:46:53;100036.94;;;18.29;
46015;BME280;36844;51.898;-0.874;2022-10-16T11:49:44;100024.34;;;18.23;
46015;BME280;36844;51.898;-0.874;2022-10-16T11:55:45;100010.47;;;18.21;
46015;BME280;36844;51.898;-0.874;2022-10-16T11:59:15;100018.13;;;18.26;
46015;BME280;36844;51.898;-0.874;2022-10-16T12:08:11;100026.09;;;18.33;
46015;BME280;36844;51.898;-0.874;2022-10-16T12:11:07;100022.25;;;18.34;
46015;BME280;36844;51.898;-0.874;2022-10-16T12:16:58;100026.50;;;18.35;
46015;BME280;36844;51.898;-0.874;2022-10-16T12:23:06;100025.38;;;18.29;
46015;BME280;36844;51.898;-0.874;2022-10-16T12:25:57;100022.63;;;18.32;
46015;BME280;36844;51.898;-0.874;2022-10-16T12:28:45;100028.47;;;18.31;
46015;BME280;36844;51.898;-0.874;2022-10-16T12:31:39;99992.53;;;18.11;
46015;BME280;36844;51.898;-0.874;2022-10-16T12:34:41;100012.28;;;18.31;
46015;BME280;36844;51.898;-0.874;2022-10-16T12:37:36;100015.38;;;18.29;
46015;BME280;36844;51.898;-0.874;2022-10-16T12:40:29;100033.75;;;18.38;
46015;BME280;36844;51.898;-0.874;2022-10-16T12:43:28;100023.41;;;18.33;
46015;BME280;36844;51.898;-0.874;2022-10-16T12:46:35;100030.28;;;18.37;
46015;BME280;36844;51.898;-0.874;2022-10-16T12:52:44;100024.94;;;18.34;
46015;BME280;36844;51.898;-0.874;2022-10-16T13:17:38;100016.81;;;18.37;
46015;BME280;36844;51.898;-0.874;2022-10-16T13:20:33;100021.03;;;18.38;
46015;BME280;36844;51.898;-0.874;2022-10-16T13:23:37;100021.91;;;18.32;
46015;BME280;36844;51.898;-0.874;2022-10-16T13:26:41;100024.94;;;18.34;
46015;BME280;36844;51.898;-0.874;2022-10-16T13:29:31;100013.75;;;18.35;
46015;BME280;36844;51.898;-0.874;2022-10-16T13:32:17;99998.16;;;18.23;
46015;BME280;36844;51.898;-0.874;2022-10-16T13:35:22;100002.66;;;18.30;
46015;BME280;36844;51.898;-0.874;2022-10-16T13:38:15;100013.38;;;18.33;
46015;BME280;36844;51.898;-0.874;2022-10-16T13:41:03;100015.19;;;18.40;
46015;BME280;36844;51.898;-0.874;2022-10-16T13:43:50;100024.84;;;18.41;
46015;BME280;36844;51.898;-0.874;2022-10-16T13:46:36;100015.66;;;18.38;
46015;BME280;36844;51.898;-0.874;2022-10-16T13:49:22;100015.66;;;18.38;
46015;BME280;36844;51.898;-0.874;2022-10-16T13:52:17;100024.19;;;18.33;
46015;BME280;36844;51.898;-0.874;2022-10-16T13:55:09;100015.75;;;18.31;
46015;BME280;36844;51.898;-0.874;2022-10-16T13:58:08;100006.50;;;18.29;
46015;BME280;36844;51.898;-0.874;2022-10-16T14:00:58;100008.41;;;18.32;
46015;BME280;36844;51.898;-0.874;2022-10-16T14:03:45;100004.91;;;18.35;
46015;BME280;36844;51.898;-0.874;2022-10-16T14:06:32;99998.03;;;18.30;
46015;BME280;36844;51.898;-0.874;2022-10-16T14:09:36;99991.09;;;18.29;
46015;BME280;36844;51.898;-0.874;2022-10-16T14:12:24;99998.00;;;18.34;
46015;BME280;36844;51.898;-0.874;2022-10-16T14:15:16;100005.25;;;18.37;
46015;BME280;36844;51.898;-0.874;2022-10-16T14:18:03;100009.09;;;18.36;
46015;BME280;36844;51.898;-0.874;2022-10-16T14:20:49;100001.06;;;18.32;
46015;BME280;36844;51.898;-0.874;2022-10-16T14:23:37;99990.72;;;18.31;
46015;BME280;36844;51.898;-0.874;2022-10-16T14:26:26;99996.50;;;18.29;
46015;BME280;36844;51.898;-0.874;2022-10-16T14:29:15;99996.78;;;18.38;
46015;BME280;36844;51.898;-0.874;2022-10-16T14:32:02;99997.22;;;18.33;
46015;BME280;36844;51.898;-0.874;2022-10-16T14:34:53;99994.56;;;18.30;
46015;BME280;36844;51.898;-0.874;2022-10-16T14:37:39;99997.94;;;18.37;
46015;BME280;36844;51.898;-0.874;2022-10-16T14:40:26;99997.94;;;18.37;
46015;BME280;36844;51.898;-0.874;2022-10-16T14:43:21;99978.06;;;18.28;
46015;BME280;36844;51.898;-0.874;2022-10-16T14:46:18;99933.13;;;17.95;
46015;BME280;36844;51.898;-0.874;2022-10-16T14:51:57;99974.66;;;18.24;
46015;BME280;36844;51.898;-0.874;2022-10-16T14:54:43;99980.38;;;18.26;
46015;BME280;36844;51.898;-0.874;2022-10-16T14:57:31;100000.69;;;18.34;
46015;BME280;36844;51.898;-0.874;2022-10-16T15:00:22;99994.19;;;18.31;
46015;BME280;36844;51.898;-0.874;2022-10-16T15:03:08;99980.00;;;18.27;
46015;BME280;36844;51.898;-0.874;2022-10-16T15:05:53;99993.41;;;18.31;
46015;BME280;36844;51.898;-0.874;2022-10-16T15:08:39;99983.91;;;18.23;
46015;BME280;36844;51.898;-0.874;2022-10-16T15:11:25;99976.69;;;18.16;
46015;BME280;36844;51.898;-0.874;2022-10-16T15:14:11;100007.72;;;18.28;
46015;BME280;36844;51.898;-0.874;2022-10-16T15:16:57;100008.50;;;18.25;
46015;BME280;36844;51.898;-0.874;2022-10-16T15:19:44;99984.41;;;18.14;
46015;BME280;36844;51.898;-0.874;2022-10-16T15:22:30;99962.13;;;18.10;
46015;BME280;36844;51.898;-0.874;2022-10-16T15:25:39;99983.06;;;18.26;
46015;BME280;36844;51.898;-0.874;2022-10-16T15:28:27;99977.41;;;18.20;
46015;BME280;36844;51.898;-0.874;2022-10-16T15:31:13;99972.03;;;18.20;
46015;BME280;36844;51.898;-0.874;2022-10-16T15:33:58;99983.50;;;18.24;
46015;BME280;36844;51.898;-0.874;2022-10-16T15:36:49;99958.16;;;18.18;
46015;BME280;36844;51.898;-0.874;2022-10-16T15:39:35;99971.53;;;18.25;
46015;BME280;36844;51.898;-0.874;2022-10-16T15:42:21;99946.63;;;18.18;
46015;BME280;36844;51.898;-0.874;2022-10-16T15:45:06;99946.63;;;18.18;
46015;BME280;36844;51.898;-0.874;2022-10-16T15:47:52;99926.81;;;18.05;
46015;BME280;36844;51.898;-0.874;2022-10-16T15:50:38;99950.47;;;18.20;
46015;BME280;36844;51.898;-0.874;2022-10-16T15:53:23;99939.78;;;18.13;
46015;BME280;36844;51.898;-0.874;2022-10-16T15:56:10;99945.78;;;18.21;
46015;BME280;36844;51.898;-0.874;2022-10-16T15:58:56;99931.28;;;18.15;
46015;BME280;36844;51.898;-0.874;2022-10-16T16:01:43;99939.28;;;18.18;
46015;BME280;36844;51.898;-0.874;2022-10-16T16:04:29;99935.38;;;18.23;
46015;BME280;36844;51.898;-0.874;2022-10-16T16:07:15;99931.09;;;18.25;
46015;BME280;36844;51.898;-0.874;2022-10-16T16:10:03;99926.47;;;18.26;
46015;BME280;36844;51.898;-0.874;2022-10-16T16:12:49;99923.78;;;18.26;
46015;BME280;36844;51.898;-0.874;2022-10-16T16:15:40;99911.25;;;18.16;
46015;BME280;36844;51.898;-0.874;2022-10-16T16:18:27;99937.25;;;18.26;
46015;BME280;36844;51.898;-0.874;2022-10-16T16:21:14;99917.78;;;18.15;
46015;BME280;36844;51.898;-0.874;2022-10-16T16:23:59;99917.78;;;18.15;
46015;BME280;36844;51.898;-0.874;2022-10-16T16:26:45;99904.31;;;18.15;
46015;BME280;36844;51.898;-0.874;2022-10-16T16:29:30;99904.31;;;18.15;
46015;BME280;36844;51.898;-0.874;2022-10-16T16:32:16;99890.97;;;18.08;
46015;BME280;36844;51.898;-0.874;2022-10-16T16:35:03;99894.75;;;18.10;
46015;BME280;36844;51.898;-0.874;2022-10-16T16:37:50;99896.72;;;18.10;
46015;BME280;36844;51.898;-0.874;2022-10-16T16:40:35;99907.38;;;18.17;
46015;BME280;36844;51.898;-0.874;2022-10-16T16:43:24;99915.47;;;18.17;
46015;BME280;36844;51.898;-0.874;2022-10-16T16:46:11;99903.94;;;18.16;
46015;BME280;36844;51.898;-0.874;2022-10-16T16:48:57;99904.00;;;18.13;
46015;BME280;36844;51.898;-0.874;2022-10-16T16:51:43;99889.38;;;18.10;
46015;BME280;36844;51.898;-0.874;2022-10-16T16:54:29;99893.94;;;18.13;
46015;BME280;36844;51.898;-0.874;2022-10-16T16:57:14;99897.28;;;18.21;
46015;BME280;36844;51.898;-0.874;2022-10-16T17:00:00;99903.50;;;18.18;
46015;BME280;36844;51.898;-0.874;2022-10-16T17:02:50;99885.88;;;18.13;
46015;BME280;36844;51.898;-0.874;2022-10-16T17:05:35;99886.94;;;18.19;
46015;BME280;36844;51.898;-0.874;2022-10-16T17:08:21;99887.75;;;18.16;
46015;BME280;36844;51.898;-0.874;2022-10-16T17:11:12;99894.56;;;18.21;
46015;BME280;36844;51.898;-0.874;2022-10-16T17:13:59;99920.69;;;18.27;
46015;BME280;36844;51.898;-0.874;2022-10-16T17:16:45;99895.72;;;18.23;
46015;BME280;36844;51.898;-0.874;2022-10-16T17:19:32;99900.28;;;18.26;